Time;durP1;ratioP1;P1;durP2;ratioP2;P2;SDS_P1;SDS_P2;PMS_P1;PMS_P2;Temp;Humidity;BMP_temperature;BMP_pressure;BME280_temperature;BME280_humidity;BME280_pressure;Samples;Min_cycle;Max_cycle;Signal;HPM_P1;HPM_P2
2022/11/30 00:01:30;;;;;;;96.65;38.85;;;5.40;99.90;;;;;;5009883;28;20018;-42
2022/11/30 00:03:56;;;;;;;101.85;40.30;;;5.40;99.90;;;;;;5010677;28;20092;-43
2022/11/30 00:06:22;;;;;;;90.00;37.85;;;5.40;99.90;;;;;;5010514;28;20037;-40
2022/11/30 00:08:56;;;;;;;92.97;40.00;;;5.40;99.90;;;;;;5010635;28;20030;-41
2022/11/30 00:11:23;;;;;;;97.90;39.75;;;5.40;99.90;;;;;;5010364;28;20045;-40
2022/11/30 00:13:49;;;;;;;93.10;41.22;;;5.40;99.90;;;;;;5008931;28;20022;-42
2022/11/30 00:16:15;;;;;;;102.40;40.78;;;5.40;99.90;;;;;;4991043;28;20046;-41
2022/11/30 00:18:40;;;;;;;105.50;42.40;;;5.40;99.90;;;;;;4991206;28;20026;-43
2022/11/30 00:21:10;;;;;;;93.18;40.65;;;5.40;99.90;;;;;;4990454;28;20040;-41
2022/11/30 00:23:38;;;;;;;101.67;42.93;;;5.40;99.90;;;;;;4990685;28;20093;-40
2022/11/30 00:26:06;;;;;;;96.57;40.90;;;5.40;99.90;;;;;;4990580;28;20268;-41
2022/11/30 00:28:32;;;;;;;90.45;38.38;;;5.40;99.90;;;;;;4989442;28;20027;-41
2022/11/30 00:31:11;;;;;;;93.25;40.75;;;5.40;99.90;;;;;;4989360;28;20471;-40
2022/11/30 00:33:38;;;;;;;83.28;36.28;;;5.40;99.90;;;;;;4991342;28;20619;-41
2022/11/30 00:36:15;;;;;;;102.22;39.80;;;5.40;99.90;;;;;;4990995;28;20045;-44
2022/11/30 00:38:42;;;;;;;98.43;38.65;;;5.40;99.90;;;;;;4991146;28;20023;-43
2022/11/30 00:41:08;;;;;;;90.47;38.88;;;5.40;99.90;;;;;;4990109;28;20345;-40
2022/11/30 00:43:33;;;;;;;96.63;40.28;;;5.30;99.90;;;;;;4996938;28;20738;-42
2022/11/30 00:45:59;;;;;;;86.38;36.83;;;5.30;99.90;;;;;;5009157;28;20036;-42
2022/11/30 00:48:25;;;;;;;86.95;38.25;;;5.40;99.90;;;;;;5010298;28;20022;-41
2022/11/30 00:50:50;;;;;;;103.82;41.38;;;5.30;99.90;;;;;;5009639;28;20026;-41
2022/11/30 00:53:16;;;;;;;87.75;38.40;;;5.30;99.90;;;;;;5008364;28;20040;-41
2022/11/30 00:55:43;;;;;;;93.43;40.85;;;5.30;99.90;;;;;;5010099;28;20025;-42
2022/11/30 00:58:08;;;;;;;91.72;38.67;;;5.30;99.90;;;;;;5009506;28;20030;-42
2022/11/30 01:00:34;;;;;;;89.22;37.17;;;5.30;99.90;;;;;;5009285;28;20029;-43
2022/11/30 01:03:00;;;;;;;86.43;37.15;;;5.30;99.90;;;;;;5009911;28;20033;-42
2022/11/30 01:05:25;;;;;;;104.10;41.80;;;5.30;99.90;;;;;;5009760;28;20034;-43
2022/11/30 01:07:50;;;;;;;94.38;38.22;;;5.30;99.90;;;;;;5009759;28;20029;-46
2022/11/30 01:10:16;;;;;;;93.22;38.47;;;5.30;99.90;;;;;;5009186;28;20145;-43
2022/11/30 01:12:42;;;;;;;100.88;41.05;;;5.40;99.90;;;;;;5003868;28;20030;-44
2022/11/30 01:15:08;;;;;;;94.00;39.03;;;5.40;99.90;;;;;;5007698;28;20029;-44
2022/11/30 01:17:33;;;;;;;88.57;37.45;;;5.40;99.90;;;;;;5009373;28;20030;-42
2022/11/30 01:19:59;;;;;;;95.00;38.58;;;5.30;99.90;;;;;;5008931;28;20014;-42
2022/11/30 01:22:24;;;;;;;84.68;36.92;;;5.30;99.90;;;;;;5009633;28;20368;-42
2022/11/30 01:24:50;;;;;;;91.03;38.70;;;5.40;99.90;;;;;;5009452;28;20479;-41
2022/11/30 01:27:15;;;;;;;107.65;39.35;;;5.30;99.90;;;;;;5009263;28;20091;-42
2022/11/30 01:29:41;;;;;;;87.57;38.40;;;5.40;99.90;;;;;;5008983;28;20129;-42
2022/11/30 01:32:07;;;;;;;95.03;37.17;;;5.40;99.90;;;;;;5009782;28;20049;-41
2022/11/30 01:34:33;;;;;;;95.90;38.55;;;5.40;99.90;;;;;;5009136;28;20415;-41
2022/11/30 01:36:58;;;;;;;93.68;40.30;;;5.30;99.90;;;;;;5009446;28;20108;-41
2022/11/30 01:39:24;;;;;;;88.35;36.58;;;5.30;99.90;;;;;;5009100;28;20872;-42
2022/11/30 01:41:49;;;;;;;89.38;38.97;;;5.30;99.90;;;;;;5007985;28;20025;-42
2022/11/30 01:44:15;;;;;;;84.55;37.33;;;5.30;99.90;;;;;;5002673;28;20049;-42
2022/11/30 01:46:44;;;;;;;85.97;36.72;;;5.30;99.90;;;;;;5008992;28;20106;-41
2022/11/30 01:49:10;;;;;;;92.72;38.75;;;5.30;99.90;;;;;;5007168;28;20311;-40
2022/11/30 01:51:52;;;;;;;86.50;37.92;;;5.30;99.90;;;;;;5009091;28;20410;-40
2022/11/30 01:54:28;;;;;;;95.88;39.22;;;5.40;99.90;;;;;;5007895;28;20113;-40
2022/11/30 01:56:57;;;;;;;94.53;39.88;;;5.40;99.90;;;;;;5009335;28;20022;-40
2022/11/30 01:59:24;;;;;;;84.05;36.92;;;5.30;99.90;;;;;;5008509;28;20549;-41
2022/11/30 02:01:51;;;;;;;88.95;37.42;;;5.40;99.90;;;;;;5008962;28;20095;-41
2022/11/30 02:04:25;;;;;;;93.00;40.45;;;5.30;99.90;;;;;;5008857;28;20033;-41
2022/11/30 02:06:51;;;;;;;89.38;39.50;;;5.30;99.90;;;;;;5008667;28;20026;-40
2022/11/30 02:09:18;;;;;;;94.72;41.25;;;5.30;99.90;;;;;;5007084;28;20280;-40
2022/11/30 02:11:44;;;;;;;90.78;39.13;;;5.30;99.90;;;;;;5007718;28;20025;-40
2022/11/30 02:14:32;;;;;;;89.72;39.20;;;5.30;99.90;;;;;;5002055;28;20088;-40
2022/11/30 02:17:26;;;;;;;92.85;36.88;;;5.30;99.90;;;;;;5008787;28;20060;-41
2022/11/30 02:20:27;;;;;;;106.07;40.25;;;5.30;99.90;;;;;;5008380;28;20436;-41
2022/11/30 02:23:32;;;;;;;85.63;37.55;;;5.30;99.90;;;;;;5008918;28;20106;-40
2022/11/30 02:26:17;;;;;;;92.15;37.88;;;5.30;99.90;;;;;;5011077;28;20022;-40
2022/11/30 02:29:03;;;;;;;97.30;38.80;;;5.30;99.90;;;;;;5012326;28;20090;-41
2022/11/30 02:31:39;;;;;;;91.55;39.00;;;5.30;99.90;;;;;;5012398;28;20022;-42
2022/11/30 02:34:06;;;;;;;86.13;38.08;;;5.30;99.90;;;;;;5012596;28;20032;-43
2022/11/30 02:36:32;;;;;;;105.97;43.00;;;5.40;99.90;;;;;;4999886;28;20136;-43
2022/11/30 02:38:57;;;;;;;101.25;38.55;;;5.40;99.90;;;;;;5005565;28;20424;-42
2022/11/30 02:41:23;;;;;;;104.07;42.05;;;5.40;99.90;;;;;;5005886;28;20018;-42
2022/11/30 02:43:49;;;;;;;98.68;40.97;;;5.40;99.90;;;;;;5008215;28;20383;-43
2022/11/30 02:46:40;;;;;;;91.65;40.08;;;5.40;99.90;;;;;;5004410;28;20090;-42
2022/11/30 02:49:36;;;;;;;95.85;38.05;;;5.40;99.90;;;;;;5012076;28;20364;-43
2022/11/30 02:52:03;;;;;;;98.25;38.17;;;5.30;99.90;;;;;;5008859;28;20041;-42
2022/11/30 02:54:29;;;;;;;91.65;40.25;;;5.40;99.90;;;;;;5010791;28;20026;-43
2022/11/30 02:56:54;;;;;;;89.97;39.35;;;5.30;99.90;;;;;;5012070;28;20030;-40
2022/11/30 02:59:21;;;;;;;93.47;39.03;;;5.40;99.90;;;;;;5011285;28;20467;-43
2022/11/30 03:01:46;;;;;;;91.55;38.38;;;5.40;99.90;;;;;;5011630;28;20018;-43
2022/11/30 03:04:12;;;;;;;95.78;39.35;;;5.40;99.90;;;;;;5011909;28;20080;-41
2022/11/30 03:06:37;;;;;;;90.53;38.65;;;5.40;99.90;;;;;;5012275;28;20029;-41
2022/11/30 03:09:03;;;;;;;95.18;39.15;;;5.40;99.90;;;;;;5011981;28;20030;-41
2022/11/30 03:11:28;;;;;;;87.78;38.55;;;5.30;99.90;;;;;;5011915;28;20045;-41
2022/11/30 03:13:54;;;;;;;101.30;40.15;;;5.30;99.90;;;;;;5008077;28;20032;-43
2022/11/30 03:16:19;;;;;;;80.75;35.92;;;5.40;99.90;;;;;;5011830;28;20124;-41
2022/11/30 03:18:45;;;;;;;89.68;37.60;;;5.40;99.90;;;;;;5010835;28;20077;-40
2022/11/30 03:21:11;;;;;;;96.38;39.13;;;5.40;99.90;;;;;;5011294;28;20376;-42
2022/11/30 03:23:37;;;;;;;92.60;39.38;;;5.40;99.90;;;;;;5011720;28;20449;-42
2022/11/30 03:26:04;;;;;;;89.75;37.90;;;5.40;99.90;;;;;;5010468;28;20113;-42
2022/11/30 03:28:30;;;;;;;96.13;38.90;;;5.40;99.90;;;;;;5011342;28;20399;-41
2022/11/30 03:30:56;;;;;;;94.43;38.53;;;5.40;99.90;;;;;;5010998;28;20025;-42
2022/11/30 03:33:22;;;;;;;110.97;41.90;;;5.40;99.90;;;;;;5009604;28;20093;-41
2022/11/30 03:35:48;;;;;;;91.70;39.95;;;5.50;99.90;;;;;;5009875;28;20058;-42
2022/11/30 03:38:13;;;;;;;90.45;36.45;;;5.40;99.90;;;;;;5010555;28;20057;-42
2022/11/30 03:40:39;;;;;;;95.65;38.83;;;5.40;99.90;;;;;;5010998;28;20476;-41
2022/11/30 03:43:04;;;;;;;93.53;37.63;;;5.40;99.90;;;;;;5006048;28;20018;-42
2022/11/30 03:45:30;;;;;;;98.18;40.63;;;5.40;99.90;;;;;;5010947;28;20026;-43
2022/11/30 03:47:55;;;;;;;94.07;39.67;;;5.40;99.90;;;;;;5011195;28;20372;-43
2022/11/30 03:50:21;;;;;;;104.20;41.17;;;5.40;99.90;;;;;;5010841;28;20360;-42
2022/11/30 03:52:47;;;;;;;96.97;38.80;;;5.40;99.90;;;;;;5011297;28;20026;-40
2022/11/30 03:55:12;;;;;;;92.43;39.13;;;5.50;99.90;;;;;;5011192;28;20026;-41
2022/11/30 03:57:38;;;;;;;97.78;41.50;;;5.50;99.90;;;;;;5011094;28;20064;-42
2022/11/30 04:00:05;;;;;;;93.63;40.38;;;5.50;99.90;;;;;;5010200;28;20092;-41
2022/11/30 04:02:31;;;;;;;91.18;39.17;;;5.40;99.90;;;;;;5010985;28;20030;-41
2022/11/30 04:04:57;;;;;;;95.22;40.17;;;5.40;99.90;;;;;;5010760;28;20088;-40
2022/11/30 04:07:22;;;;;;;95.28;39.63;;;5.40;99.90;;;;;;5011202;28;20494;-41
2022/11/30 04:09:48;;;;;;;95.38;40.92;;;5.40;99.90;;;;;;5010275;28;20030;-41
2022/11/30 04:12:13;;;;;;;91.32;37.92;;;5.40;99.90;;;;;;5011334;28;20034;-42
2022/11/30 04:14:38;;;;;;;103.80;41.10;;;5.40;99.90;;;;;;5009099;28;20613;-41
2022/11/30 04:17:04;;;;;;;92.82;37.90;;;5.40;99.90;;;;;;5010697;28;20064;-41
2022/11/30 04:19:29;;;;;;;101.72;41.33;;;5.40;99.90;;;;;;5010171;28;20105;-42
2022/11/30 04:21:55;;;;;;;110.70;43.58;;;5.40;99.90;;;;;;5010408;28;20044;-41
2022/11/30 04:24:20;;;;;;;104.28;40.90;;;5.50;99.90;;;;;;5010202;28;20075;-41
2022/11/30 04:26:46;;;;;;;93.93;38.97;;;5.40;99.90;;;;;;5010502;28;20696;-41
2022/11/30 04:29:11;;;;;;;96.57;40.40;;;5.40;99.90;;;;;;5009703;28;20143;-42
2022/11/30 04:31:37;;;;;;;100.38;40.83;;;5.40;99.90;;;;;;5010580;28;20502;-42
2022/11/30 04:34:02;;;;;;;90.03;39.40;;;5.40;99.90;;;;;;5010591;28;20044;-43
2022/11/30 04:36:28;;;;;;;90.97;37.40;;;5.40;99.90;;;;;;5010574;28;20033;-41
2022/11/30 04:38:53;;;;;;;111.07;43.22;;;5.40;99.90;;;;;;5008522;28;20088;-41
2022/11/30 04:41:19;;;;;;;99.63;40.10;;;5.40;99.90;;;;;;5008061;28;20022;-42
2022/11/30 04:43:44;;;;;;;102.47;43.13;;;5.40;99.90;;;;;;5007555;28;20014;-40
2022/11/30 04:46:10;;;;;;;103.97;42.05;;;5.40;99.90;;;;;;5009847;28;20018;-41
2022/11/30 04:48:35;;;;;;;114.57;44.38;;;5.40;99.90;;;;;;5009512;28;20025;-41
2022/11/30 04:51:06;;;;;;;100.53;41.28;;;5.40;99.90;;;;;;5009444;28;20041;-42
2022/11/30 04:53:32;;;;;;;;;;;5.40;99.90;;;;;;5009225;28;20267;-41
2022/11/30 04:55:58;;;;;;;98.78;41.45;;;5.40;99.90;;;;;;5010029;28;19912;-41
2022/11/30 04:58:23;;;;;;;94.60;38.83;;;5.40;99.90;;;;;;5009690;28;20034;-40
2022/11/30 05:00:51;;;;;;;101.63;40.90;;;5.40;99.90;;;;;;5009322;28;20044;-41
2022/11/30 05:03:17;;;;;;;108.82;43.78;;;5.40;99.90;;;;;;5009822;28;20092;-40
2022/11/30 05:05:42;;;;;;;103.00;40.25;;;5.50;99.90;;;;;;5008508;28;20029;-41
2022/11/30 05:08:08;;;;;;;100.63;40.05;;;5.50;99.90;;;;;;5009796;28;20029;-42
2022/11/30 05:10:34;;;;;;;105.75;41.80;;;5.50;99.90;;;;;;5007881;28;20103;-42
2022/11/30 05:13:00;;;;;;;101.85;40.45;;;5.50;99.90;;;;;;5009465;28;20036;-40
2022/11/30 05:15:25;;;;;;;104.72;41.13;;;5.50;99.90;;;;;;5009394;28;20101;-41
2022/11/30 05:17:51;;;;;;;105.32;41.22;;;5.50;99.90;;;;;;5009458;28;20112;-41
2022/11/30 05:20:17;;;;;;;107.82;40.50;;;5.50;99.90;;;;;;5009295;28;20068;-42
2022/11/30 05:22:42;;;;;;;97.38;41.03;;;5.50;99.90;;;;;;5009463;28;20028;-45
2022/11/30 05:25:08;;;;;;;117.20;44.17;;;5.50;99.90;;;;;;5009443;28;20100;-43
2022/11/30 05:27:34;;;;;;;102.70;42.05;;;5.50;99.90;;;;;;5009206;28;20033;-42
2022/11/30 05:30:00;;;;;;;112.95;44.25;;;5.50;99.90;;;;;;5008593;28;20091;-42
2022/11/30 05:32:25;;;;;;;116.35;44.22;;;5.50;99.90;;;;;;5009203;28;20108;-44
2022/11/30 05:34:51;;;;;;;120.05;46.15;;;5.50;99.90;;;;;;5009172;28;20029;-43
2022/11/30 05:37:16;;;;;;;109.50;43.58;;;5.50;99.90;;;;;;5008928;28;20033;-43
2022/11/30 05:39:42;;;;;;;125.43;45.47;;;5.50;99.90;;;;;;5008958;28;20037;-43
2022/11/30 05:42:07;;;;;;;106.30;42.78;;;5.50;99.90;;;;;;5009386;28;20502;-41
2022/11/30 05:44:33;;;;;;;112.50;43.92;;;5.50;99.90;;;;;;5002176;28;20014;-43
2022/11/30 05:46:58;;;;;;;98.90;40.80;;;5.50;99.90;;;;;;5009156;28;20145;-43
2022/11/30 05:49:24;;;;;;;115.30;44.22;;;5.50;99.90;;;;;;5008596;28;20444;-42
2022/11/30 05:51:49;;;;;;;108.65;44.08;;;5.50;99.90;;;;;;5003987;28;20108;-41
2022/11/30 05:54:15;;;;;;;115.75;44.65;;;5.50;99.90;;;;;;5000200;28;20035;-44
2022/11/30 05:56:40;;;;;;;113.13;45.20;;;5.50;99.90;;;;;;5007798;28;20065;-42
2022/11/30 05:59:06;;;;;;;108.45;42.88;;;5.50;99.90;;;;;;5007451;28;20097;-44
2022/11/30 06:01:31;;;;;;;113.20;45.28;;;5.60;99.90;;;;;;5007358;28;20037;-44
2022/11/30 06:03:57;;;;;;;115.03;43.75;;;5.50;99.90;;;;;;5008470;28;20037;-42
2022/11/30 06:06:22;;;;;;;182.35;84.53;;;5.50;99.90;;;;;;5008852;28;20030;-43
2022/11/30 06:08:49;;;;;;;158.75;63.85;;;5.60;99.90;;;;;;5007658;28;20022;-43
2022/11/30 06:11:15;;;;;;;140.85;55.40;;;5.50;99.90;;;;;;5008311;28;20046;-43
2022/11/30 06:13:41;;;;;;;121.65;48.03;;;5.60;99.90;;;;;;5003298;28;20372;-43
2022/11/30 06:16:07;;;;;;;123.43;45.70;;;5.60;99.90;;;;;;5007741;28;20598;-43
2022/11/30 06:18:34;;;;;;;117.85;43.60;;;5.60;99.90;;;;;;5007553;28;20022;-42
2022/11/30 06:21:04;;;;;;;122.47;47.50;;;5.60;99.90;;;;;;5007388;28;20049;-42
2022/11/30 06:23:30;;;;;;;;;;;5.60;99.90;;;;;;5009183;28;20033;-42
2022/11/30 06:25:56;;;;;;;113.78;43.47;;;5.60;99.90;;;;;;5008571;28;20290;-41
2022/11/30 06:28:22;;;;;;;131.13;48.15;;;5.60;99.90;;;;;;5008942;28;20045;-42
2022/11/30 06:30:47;;;;;;;129.88;47.25;;;5.50;99.90;;;;;;5007202;28;20027;-41
2022/11/30 06:33:13;;;;;;;125.03;46.70;;;5.60;99.90;;;;;;5008477;28;20061;-44
2022/11/30 06:35:47;;;;;;;131.77;47.22;;;5.60;99.90;;;;;;5008523;28;20036;-42
2022/11/30 06:38:13;;;;;;;123.88;47.40;;;5.50;99.90;;;;;;5005645;28;20037;-44
2022/11/30 06:40:38;;;;;;;145.60;50.88;;;5.50;99.90;;;;;;5007258;28;20022;-44
2022/11/30 06:43:04;;;;;;;123.53;47.05;;;5.60;99.90;;;;;;5007240;28;20014;-42
2022/11/30 06:45:30;;;;;;;131.18;46.58;;;5.60;99.90;;;;;;5005558;28;20467;-42
2022/11/30 06:47:56;;;;;;;118.22;43.90;;;5.60;99.90;;;;;;5006920;28;20037;-41
2022/11/30 06:50:22;;;;;;;124.22;44.67;;;5.60;99.90;;;;;;5001332;28;20427;-43
2022/11/30 06:52:48;;;;;;;127.35;46.42;;;5.60;99.90;;;;;;5008513;28;20018;-46
2022/11/30 06:55:13;;;;;;;139.32;47.92;;;5.60;99.90;;;;;;5008231;28;20422;-42
2022/11/30 06:57:39;;;;;;;126.53;47.78;;;5.60;99.90;;;;;;5008211;28;20018;-44
2022/11/30 07:00:05;;;;;;;114.70;45.53;;;5.60;99.90;;;;;;5007546;28;20391;-44
2022/11/30 07:02:30;;;;;;;140.07;50.10;;;5.60;99.90;;;;;;5008187;28;20372;-43
2022/11/30 07:04:56;;;;;;;122.10;47.38;;;5.60;99.90;;;;;;5007334;28;20018;-41
2022/11/30 07:07:21;;;;;;;134.57;48.95;;;5.50;99.90;;;;;;5007881;28;20041;-42
2022/11/30 07:09:48;;;;;;;129.27;49.35;;;5.60;99.90;;;;;;5005708;28;20022;-46
2022/11/30 07:12:13;;;;;;;125.03;46.60;;;5.60;99.90;;;;;;5008359;28;20018;-43
2022/11/30 07:14:38;;;;;;;135.55;48.65;;;5.60;99.90;;;;;;5010429;28;20356;-42
2022/11/30 07:17:04;;;;;;;123.28;47.67;;;5.60;99.90;;;;;;5010874;28;20029;-42
2022/11/30 07:19:30;;;;;;;141.05;50.42;;;5.60;99.90;;;;;;5010485;28;20030;-42
2022/11/30 07:21:55;;;;;;;154.18;50.38;;;5.60;99.90;;;;;;5011269;28;20026;-42
2022/11/30 07:27:06;;;;;;;136.43;45.88;;;5.60;99.90;;;;;;5011219;28;20036;-41
2022/11/30 07:29:31;;;;;;;130.13;45.97;;;5.60;99.90;;;;;;5010416;28;20398;-42
2022/11/30 07:31:57;;;;;;;125.35;46.45;;;5.60;99.90;;;;;;5011008;28;20037;-40
2022/11/30 07:34:22;;;;;;;131.82;47.80;;;5.70;99.90;;;;;;5010702;28;20091;-42
2022/11/30 07:36:48;;;;;;;135.52;47.88;;;5.70;99.90;;;;;;5010889;28;20022;-44
2022/11/30 07:39:14;;;;;;;127.40;49.20;;;5.70;99.90;;;;;;5010169;28;20026;-45
2022/11/30 07:41:40;;;;;;;129.30;49.15;;;5.70;99.90;;;;;;5010879;28;20010;-41
2022/11/30 07:44:07;;;;;;;131.57;46.92;;;5.70;99.90;;;;;;5010149;28;20018;-43
2022/11/30 07:46:34;;;;;;;135.15;49.42;;;5.70;99.90;;;;;;5009737;28;20058;-42
2022/11/30 07:49:01;;;;;;;129.20;46.53;;;5.70;99.90;;;;;;5011002;28;20013;-44
2022/11/30 07:51:27;;;;;;;139.65;50.58;;;5.70;99.90;;;;;;5010433;28;20026;-44
2022/11/30 07:53:55;;;;;;;136.25;47.10;;;5.60;99.90;;;;;;5011034;28;20455;-42
2022/11/30 07:56:21;;;;;;;129.63;45.72;;;5.60;99.90;;;;;;5010735;28;20037;-44
2022/11/30 07:58:49;;;;;;;137.55;47.30;;;5.60;99.90;;;;;;5009280;28;20033;-43
2022/11/30 08:01:20;;;;;;;142.55;47.55;;;5.60;99.90;;;;;;5008797;28;20117;-45
2022/11/30 08:03:46;;;;;;;132.85;50.10;;;5.60;99.90;;;;;;5011078;28;20017;-41
2022/11/30 08:06:19;;;;;;;134.00;46.78;;;5.60;99.90;;;;;;5011031;28;20092;-41
2022/11/30 08:08:45;;;;;;;133.15;48.97;;;5.60;99.90;;;;;;5010963;28;20018;-43
2022/11/30 08:11:13;;;;;;;143.50;50.30;;;5.60;99.90;;;;;;5009100;28;20026;-43
2022/11/30 08:13:38;;;;;;;129.65;47.33;;;5.70;99.90;;;;;;5005653;28;20061;-42
2022/11/30 08:16:07;;;;;;;141.68;49.20;;;5.70;99.90;;;;;;5009004;28;20026;-41
2022/11/30 08:18:33;;;;;;;151.15;50.75;;;5.70;99.90;;;;;;5010508;28;20487;-43
2022/11/30 08:21:00;;;;;;;139.65;47.58;;;5.70;99.90;;;;;;5010528;28;20056;-41
2022/11/30 08:23:36;;;;;;;149.75;51.90;;;5.70;99.90;;;;;;5010079;28;20036;-42
2022/11/30 08:26:06;;;;;;;135.95;49.13;;;5.70;99.90;;;;;;5010626;28;20163;-47
2022/11/30 08:28:34;;;;;;;;;;;5.70;99.90;;;;;;5011391;28;20041;-47
2022/11/30 08:31:02;;;;;;;132.90;47.85;;;5.70;99.90;;;;;;5010003;28;20382;-47
2022/11/30 08:33:31;;;;;;;126.47;44.80;;;5.70;99.90;;;;;;5010569;28;20432;-53
2022/11/30 08:36:18;;;;;;;126.82;45.80;;;5.70;99.90;;;;;;5003534;28;20034;-48
2022/11/30 08:38:44;;;;;;;138.25;48.58;;;5.70;99.90;;;;;;4989726;28;20026;-50
2022/11/30 08:41:12;;;;;;;134.90;48.42;;;5.70;99.90;;;;;;4989179;28;20037;-52
2022/11/30 08:43:38;;;;;;;121.45;45.63;;;5.60;99.90;;;;;;4991234;28;20102;-52
2022/11/30 08:46:06;;;;;;;129.02;46.30;;;5.70;99.90;;;;;;5007592;28;20025;-49
2022/11/30 08:48:33;;;;;;;133.68;48.40;;;5.70;99.90;;;;;;5009159;28;20037;-49
2022/11/30 08:51:04;;;;;;;139.20;48.15;;;5.70;99.90;;;;;;5008686;28;20100;-49
2022/11/30 08:53:30;;;;;;;134.70;46.05;;;5.70;99.90;;;;;;5008979;28;20496;-50
2022/11/30 08:55:58;;;;;;;140.10;50.65;;;5.70;99.90;;;;;;5008940;28;20030;-48
2022/11/30 08:58:24;;;;;;;134.13;49.15;;;5.80;99.90;;;;;;5007115;28;20501;-48
2022/11/30 09:00:50;;;;;;;137.18;49.00;;;5.70;99.90;;;;;;5008836;28;20037;-48
2022/11/30 09:03:16;;;;;;;129.75;48.67;;;5.70;99.90;;;;;;5009037;28;20733;-50
2022/11/30 09:05:41;;;;;;;132.40;48.60;;;5.80;99.90;;;;;;5009108;28;20167;-48
2022/11/30 09:08:06;;;;;;;133.23;47.20;;;5.80;99.90;;;;;;5008831;28;20030;-50
2022/11/30 09:10:32;;;;;;;132.90;47.42;;;5.80;99.90;;;;;;5008006;28;20068;-49
2022/11/30 09:12:57;;;;;;;133.38;49.92;;;5.80;99.90;;;;;;5008376;28;20026;-49
2022/11/30 09:15:23;;;;;;;140.05;48.63;;;5.80;99.90;;;;;;5005941;28;20037;-52
2022/11/30 09:17:48;;;;;;;131.02;48.28;;;5.70;99.90;;;;;;5007368;28;20033;-47
2022/11/30 09:20:14;;;;;;;147.77;49.95;;;5.70;99.90;;;;;;5006752;28;20025;-50
2022/11/30 09:22:41;;;;;;;127.13;47.65;;;5.80;99.90;;;;;;5008614;28;20025;-51
2022/11/30 09:25:07;;;;;;;393.25;191.63;;;5.80;99.90;;;;;;5008423;28;20141;-52
2022/11/30 09:27:33;;;;;;;227.40;90.53;;;5.80;99.90;;;;;;5008740;28;20518;-48
2022/11/30 09:29:59;;;;;;;130.95;49.17;;;5.80;99.90;;;;;;5007717;28;20033;-48
2022/11/30 09:32:25;;;;;;;130.98;46.63;;;5.90;99.90;;;;;;5008404;28;20022;-50
2022/11/30 09:34:50;;;;;;;133.77;48.97;;;5.90;99.90;;;;;;5007012;28;20083;-51
2022/11/30 09:37:16;;;;;;;142.32;48.63;;;5.90;99.90;;;;;;5007972;28;20491;-48
2022/11/30 09:39:41;;;;;;;131.02;46.08;;;5.90;99.90;;;;;;5007656;28;20156;-48
2022/11/30 09:42:12;;;;;;;133.80;49.83;;;5.90;99.90;;;;;;5006815;28;20585;-48
2022/11/30 09:45:01;;;;;;;133.32;49.42;;;5.90;99.90;;;;;;5004949;28;20026;-47
2022/11/30 09:47:56;;;;;;;129.95;46.88;;;5.90;99.90;;;;;;5001720;28;20423;-49
2022/11/30 09:50:26;;;;;;;131.20;47.63;;;5.90;99.90;;;;;;5007700;28;20053;-49
2022/11/30 09:52:57;;;;;;;125.70;48.03;;;5.90;99.90;;;;;;5007516;28;20069;-48
2022/11/30 09:55:31;;;;;;;144.23;51.30;;;5.90;99.90;;;;;;5008460;28;20422;-48
2022/11/30 09:58:03;;;;;;;131.48;48.60;;;5.90;99.90;;;;;;5005841;28;20067;-48
2022/11/30 10:00:28;;;;;;;117.97;44.72;;;5.90;99.90;;;;;;5004924;28;20030;-51
2022/11/30 10:02:56;;;;;;;127.82;46.58;;;5.90;99.90;;;;;;5006837;28;20022;-49
2022/11/30 10:05:27;;;;;;;117.70;45.25;;;6.00;99.90;;;;;;5006883;28;20029;-50
2022/11/30 10:08:18;;;;;;;128.90;47.28;;;6.00;99.90;;;;;;5008736;28;20036;-51
2022/11/30 10:11:02;;;;;;;117.70;47.05;;;6.00;99.90;;;;;;5008523;28;20108;-49
2022/11/30 10:13:57;;;;;;;114.97;42.67;;;6.00;99.90;;;;;;5007984;28;20033;-49
2022/11/30 10:16:54;;;;;;;132.27;45.88;;;6.00;99.90;;;;;;5001720;28;20535;-48
2022/11/30 10:19:22;;;;;;;125.28;47.08;;;6.00;99.90;;;;;;5006708;28;20086;-49
2022/11/30 10:22:18;;;;;;;116.82;45.67;;;6.00;99.90;;;;;;5005901;28;20014;-49
2022/11/30 10:25:13;;;;;;;126.13;46.42;;;6.00;99.90;;;;;;5008575;28;20026;-48
2022/11/30 10:27:51;;;;;;;118.35;45.97;;;6.00;99.90;;;;;;5009118;28;20053;-49
2022/11/30 10:30:21;;;;;;;118.78;44.63;;;6.00;99.90;;;;;;5008215;28;20034;-49
2022/11/30 10:32:52;;;;;;;109.35;45.22;;;6.00;99.90;;;;;;5008707;28;20519;-48
2022/11/30 10:35:48;;;;;;;118.50;43.63;;;6.00;99.90;;;;;;5007307;28;20038;-48
2022/11/30 10:38:20;;;;;;;116.82;46.13;;;6.00;99.90;;;;;;5008493;28;20077;-49
2022/11/30 10:40:55;;;;;;;116.85;43.03;;;6.10;99.90;;;;;;5008420;28;20026;-47
2022/11/30 10:43:32;;;;;;;125.57;49.17;;;6.00;99.90;;;;;;5008466;28;20022;-47
2022/11/30 10:45:58;;;;;;;126.40;46.95;;;6.00;99.90;;;;;;5006617;28;20372;-47
2022/11/30 10:48:29;;;;;;;119.20;47.15;;;6.00;99.90;;;;;;4998738;28;20041;-48
2022/11/30 10:50:55;;;;;;;123.43;45.92;;;6.10;99.90;;;;;;5007054;28;20399;-47
2022/11/30 10:53:21;;;;;;;120.97;48.95;;;6.10;99.90;;;;;;5000924;28;20022;-49
2022/11/30 10:56:11;;;;;;;136.38;49.70;;;6.10;99.90;;;;;;4992661;28;20034;-48
2022/11/30 10:58:47;;;;;;;128.40;48.33;;;6.10;99.90;;;;;;4991903;28;20163;-48
2022/11/30 11:01:33;;;;;;;112.30;45.17;;;6.10;99.90;;;;;;4990878;28;20023;-47
2022/11/30 11:04:11;;;;;;;132.95;49.72;;;6.10;99.90;;;;;;4992184;28;20069;-48
2022/11/30 11:06:45;;;;;;;131.57;48.47;;;6.10;99.90;;;;;;4992483;28;20038;-48
2022/11/30 11:09:28;;;;;;;121.53;47.13;;;6.10;99.90;;;;;;4992274;28;20027;-47
2022/11/30 11:11:58;;;;;;;135.73;48.45;;;6.00;99.90;;;;;;4992517;28;20037;-47
2022/11/30 11:14:27;;;;;;;129.88;48.78;;;6.00;99.90;;;;;;4995610;28;20084;-48
2022/11/30 11:17:01;;;;;;;129.48;49.05;;;6.00;99.90;;;;;;5011689;28;20117;-49
2022/11/30 11:19:38;;;;;;;134.18;50.58;;;6.00;99.90;;;;;;5011333;28;20084;-49
2022/11/30 11:22:20;;;;;;;133.45;49.90;;;6.10;99.90;;;;;;5011601;28;20018;-51
2022/11/30 11:24:47;;;;;;;114.88;45.78;;;6.10;99.90;;;;;;5011865;28;20307;-51
2022/11/30 11:27:27;;;;;;;126.18;50.80;;;6.00;99.90;;;;;;5010316;28;20394;-47
2022/11/30 11:30:11;;;;;;;123.13;49.88;;;6.00;99.90;;;;;;5010644;28;20061;-48
2022/11/30 11:32:36;;;;;;;120.75;46.80;;;6.00;99.90;;;;;;5011090;28;20490;-48
2022/11/30 11:35:03;;;;;;;122.28;48.63;;;6.00;99.90;;;;;;5011406;28;20057;-47
2022/11/30 11:37:32;;;;;;;115.63;48.28;;;6.00;99.90;;;;;;5011596;28;20033;-48
2022/11/30 11:40:06;;;;;;;125.68;49.95;;;6.00;99.90;;;;;;5011132;28;20474;-50
2022/11/30 11:42:50;;;;;;;133.68;51.92;;;6.00;99.90;;;;;;5011371;28;20390;-50
2022/11/30 11:45:27;;;;;;;132.95;51.97;;;6.00;99.90;;;;;;5001514;28;20018;-52
2022/11/30 11:48:03;;;;;;;140.98;50.35;;;6.00;99.90;;;;;;5011154;28;20475;-49
2022/11/30 11:50:34;;;;;;;143.75;53.75;;;6.00;99.90;;;;;;5010708;28;20031;-50
2022/11/30 11:53:23;;;;;;;130.63;51.95;;;6.00;99.90;;;;;;5006448;28;20026;-51
2022/11/30 11:55:55;;;;;;;127.72;51.47;;;6.00;99.90;;;;;;5007653;28;20026;-48
2022/11/30 11:59:14;;;;;;;140.20;55.33;;;6.00;99.90;;;;;;5009675;28;20026;-49
2022/11/30 12:02:03;;;;;;;142.50;51.55;;;6.10;99.90;;;;;;5007836;28;20509;-48
2022/11/30 12:04:44;;;;;;;148.60;54.75;;;6.00;99.90;;;;;;5008173;28;20097;-50
2022/11/30 12:07:17;;;;;;;;;;;6.10;99.90;;;;;;5008693;28;20026;-48
2022/11/30 12:09:53;;;;;;;152.52;57.95;;;6.10;99.90;;;;;;5010251;28;20367;-47
2022/11/30 12:12:19;;;;;;;141.35;55.80;;;6.10;99.90;;;;;;5009700;28;20246;-49
2022/11/30 12:14:44;;;;;;;135.57;52.25;;;6.00;99.90;;;;;;5010121;28;20026;-51
2022/11/30 12:17:16;;;;;;;139.73;52.88;;;6.10;99.90;;;;;;5010378;28;20033;-48
2022/11/30 12:20:13;;;;;;;146.82;54.05;;;6.10;99.90;;;;;;5008628;28;20022;-51
2022/11/30 12:23:03;;;;;;;135.40;53.35;;;6.10;99.90;;;;;;5008794;28;20471;-49
2022/11/30 12:25:33;;;;;;;149.88;57.00;;;6.10;99.90;;;;;;5008523;28;20107;-49
2022/11/30 12:28:30;;;;;;;143.90;55.53;;;6.10;99.90;;;;;;5009135;28;20067;-48
2022/11/30 12:31:13;;;;;;;140.35;55.50;;;6.10;99.90;;;;;;5005836;28;20037;-48
2022/11/30 12:33:49;;;;;;;135.25;55.00;;;6.00;99.90;;;;;;5009410;28;20021;-49
2022/11/30 12:36:42;;;;;;;141.32;56.88;;;6.00;99.90;;;;;;5009980;28;20056;-49
2022/11/30 12:39:38;;;;;;;132.73;54.17;;;6.10;99.90;;;;;;5008310;28;20029;-48
2022/11/30 12:42:40;;;;;;;140.18;56.95;;;6.10;99.90;;;;;;5009860;28;20034;-52
2022/11/30 12:45:27;;;;;;;117.35;52.03;;;6.00;99.90;;;;;;5004163;28;20033;-48
2022/11/30 12:48:05;;;;;;;131.07;54.17;;;6.00;99.90;;;;;;5010551;28;20475;-48